createdAt,value
2022-12-14T00:00:54.708Z,55.34
2022-12-14T00:02:57.182Z,55.33
2022-12-14T00:04:59.521Z,55.44
2022-12-14T00:07:01.596Z,54.99
2022-12-14T00:09:05.053Z,55.25
2022-12-14T00:11:07.117Z,55.28
2022-12-14T00:13:12.657Z,54.71
2022-12-14T00:15:14.775Z,55.08
2022-12-14T00:17:16.753Z,55.26
2022-12-14T00:19:21.488Z,54.95
2022-12-14T00:21:23.832Z,55.17
2022-12-14T00:23:25.821Z,54.82
2022-12-14T00:25:29.296Z,54.88
2022-12-14T00:27:31.124Z,55.02
2022-12-14T00:29:33.107Z,55.09
2022-12-14T00:31:36.513Z,55.39
2022-12-14T00:33:39.054Z,55.37
2022-12-14T00:35:44.136Z,55.33
2022-12-14T00:37:48.921Z,55.19
2022-12-14T00:39:51.142Z,55.36
2022-12-14T00:41:53.598Z,55.30
2022-12-14T00:43:55.476Z,55.33
2022-12-14T00:45:57.684Z,55.15
2022-12-14T00:47:59.732Z,55.06
2022-12-14T00:50:01.839Z,54.72
2022-12-14T00:52:03.893Z,54.96
2022-12-14T00:54:05.999Z,54.99
2022-12-14T00:56:08.811Z,54.59
2022-12-14T00:58:12.813Z,54.66
2022-12-14T01:00:16.578Z,54.81
2022-12-14T01:02:18.909Z,54.88
2022-12-14T01:04:23.351Z,54.92
2022-12-14T01:06:25.568Z,55.00
2022-12-14T01:08:35.927Z,55.13
2022-12-14T01:10:41.140Z,55.36
2022-12-14T01:12:43.215Z,54.84
2022-12-14T01:14:46.435Z,55.10
2022-12-14T01:16:48.572Z,54.99
2022-12-14T01:18:50.698Z,55.25
2022-12-14T01:20:52.743Z,54.87
2022-12-14T01:22:59.055Z,54.65
2022-12-14T01:25:01.132Z,55.04
2022-12-14T01:27:03.470Z,54.85
2022-12-14T01:29:06.365Z,54.83
2022-12-14T01:31:17.928Z,54.53
2022-12-14T01:33:19.965Z,54.73
2022-12-14T01:35:22.009Z,54.99
2022-12-14T01:37:23.924Z,54.63
2022-12-14T01:39:25.917Z,54.36
2022-12-14T01:41:29.482Z,54.07
2022-12-14T01:43:51.837Z,54.47
2022-12-14T01:45:57.875Z,54.41
2022-12-14T01:48:02.998Z,54.34
2022-12-14T01:50:25.460Z,54.37
2022-12-14T01:52:40.109Z,54.43
2022-12-14T01:54:49.249Z,54.13
2022-12-14T01:56:52.550Z,54.16
2022-12-14T01:58:56.933Z,54.29
2022-12-14T02:01:02.592Z,54.13
2022-12-14T02:03:13.038Z,53.95
2022-12-14T02:05:18.465Z,54.24
2022-12-14T02:07:21.855Z,54.10
2022-12-14T02:09:30.525Z,54.23
2022-12-14T02:11:43.867Z,53.75
2022-12-14T02:13:48.904Z,53.58
2022-12-14T02:15:52.220Z,53.95
2022-12-14T02:17:54.566Z,54.00
2022-12-14T02:19:58.285Z,53.60
2022-12-14T02:22:12.652Z,54.22
2022-12-14T02:24:30.136Z,54.20
2022-12-14T02:26:55.147Z,54.49
2022-12-14T02:29:18.295Z,53.86
2022-12-14T02:32:11.129Z,54.08
2022-12-14T02:34:32.553Z,53.83
2022-12-14T02:36:43.730Z,53.89
2022-12-14T02:39:34.751Z,54.29
2022-12-14T02:42:09.126Z,54.28
2022-12-14T02:44:44.875Z,54.11
2022-12-14T02:47:16.225Z,54.41
2022-12-14T02:49:23.949Z,54.73
2022-12-14T02:51:57.622Z,55.00
2022-12-14T02:54:17.825Z,54.98
2022-12-14T02:56:25.641Z,55.17
2022-12-14T02:58:38.324Z,54.73
2022-12-14T03:00:41.206Z,54.49
2022-12-14T03:02:44.963Z,54.85
2022-12-14T03:04:51.168Z,54.71
2022-12-14T03:07:24.709Z,54.13
2022-12-14T03:09:31.417Z,54.50
2022-12-14T03:11:56.354Z,54.20
2022-12-14T03:14:24.111Z,54.09
2022-12-14T03:16:32.176Z,54.08
2022-12-14T03:18:43.029Z,53.73
2022-12-14T03:20:50.511Z,53.23
2022-12-14T03:23:15.916Z,52.74
2022-12-14T03:25:25.656Z,53.06
2022-12-14T03:27:35.168Z,53.04
2022-12-14T03:29:53.362Z,52.86
2022-12-14T03:32:26.759Z,52.98
2022-12-14T03:34:34.237Z,52.95
2022-12-14T03:36:44.145Z,53.28
2022-12-14T03:38:51.272Z,53.06
2022-12-14T03:40:57.803Z,53.21
2022-12-14T03:43:33.035Z,53.06
2022-12-14T03:46:01.375Z,52.78
2022-12-14T03:48:42.910Z,52.70
2022-12-14T03:51:01.555Z,52.62
2022-12-14T03:53:06.107Z,52.33
2022-12-14T03:55:09.028Z,52.12
2022-12-14T03:57:34.625Z,52.44
2022-12-14T04:00:01.817Z,52.78
2022-12-14T04:02:11.176Z,52.93
2022-12-14T04:04:18.886Z,52.94
2022-12-14T04:06:38.865Z,53.00
2022-12-14T04:08:49.986Z,52.55
2022-12-14T04:11:14.758Z,52.74
2022-12-14T04:13:40.503Z,52.38
2022-12-14T04:16:02.749Z,52.54
2022-12-14T04:18:28.126Z,52.39
2022-12-14T04:20:53.130Z,52.78
2022-12-14T04:23:04.021Z,52.77
2022-12-14T04:25:38.693Z,52.86
2022-12-14T04:28:00.224Z,53.10
2022-12-14T04:30:05.253Z,53.51
2022-12-14T04:32:18.447Z,52.96
2022-12-14T04:34:24.631Z,52.88
2022-12-14T04:36:34.369Z,53.00
2022-12-14T04:39:26.392Z,52.97
2022-12-14T04:41:34.129Z,52.85
2022-12-14T04:43:41.160Z,52.36
2022-12-14T04:45:58.646Z,52.69
2022-12-14T04:48:31.062Z,52.40
2022-12-14T04:50:39.906Z,52.71
2022-12-14T04:52:49.630Z,52.72
2022-12-14T04:54:56.810Z,52.99
2022-12-14T04:57:26.096Z,52.96
2022-12-14T04:59:29.121Z,53.07
2022-12-14T05:01:57.733Z,52.92
2022-12-14T05:04:31.819Z,52.82
2022-12-14T05:06:44.182Z,53.47
2022-12-14T05:08:55.701Z,53.13
2022-12-14T05:11:39.641Z,53.12
2022-12-14T05:13:49.123Z,52.76
2022-12-14T05:15:56.681Z,52.26
2022-12-14T05:18:03.946Z,52.17
2022-12-14T05:20:12.942Z,51.45
2022-12-14T05:22:15.073Z,52.08
2022-12-14T05:24:17.514Z,52.18
2022-12-14T05:26:19.448Z,51.92
2022-12-14T05:28:21.714Z,51.63
2022-12-14T05:30:23.780Z,51.40
2022-12-14T05:32:26.388Z,51.52
2022-12-14T05:34:28.447Z,51.58
2022-12-14T05:36:30.577Z,51.23
2022-12-14T05:38:32.673Z,51.27
2022-12-14T05:40:34.736Z,51.57
2022-12-14T05:42:41.088Z,51.91
2022-12-14T05:44:46.817Z,52.18
2022-12-14T05:46:48.846Z,52.05
2022-12-14T05:48:51.063Z,52.32
2022-12-14T05:50:53.216Z,52.20
2022-12-14T05:52:56.006Z,52.45
2022-12-14T05:55:02.441Z,51.90
2022-12-14T05:57:07.135Z,51.42
2022-12-14T05:59:09.455Z,51.21
2022-12-14T06:01:17.221Z,51.40
2022-12-14T06:03:21.773Z,51.30
2022-12-14T06:05:23.962Z,51.18
2022-12-14T06:07:28.110Z,50.86
2022-12-14T06:09:30.665Z,49.98
2022-12-14T06:11:33.503Z,50.52
2022-12-14T06:13:36.871Z,49.80
2022-12-14T06:15:38.737Z,49.56
2022-12-14T06:17:47.541Z,49.54
2022-12-14T06:19:50.600Z,49.72
2022-12-14T06:21:52.579Z,49.82
2022-12-14T06:23:55.664Z,50.08
2022-12-14T06:25:57.899Z,49.30
2022-12-14T06:27:59.962Z,48.80
2022-12-14T06:30:02.172Z,48.94
2022-12-14T06:32:04.390Z,48.78
2022-12-14T06:34:06.425Z,48.39
2022-12-14T06:36:26.924Z,48.21
2022-12-14T06:38:29.168Z,48.31
2022-12-14T06:40:31.633Z,48.40
2022-12-14T06:42:33.591Z,49.00
2022-12-14T06:44:35.833Z,49.47
2022-12-14T06:46:38.104Z,49.04
2022-12-14T06:48:40.350Z,48.28
2022-12-14T06:50:42.312Z,49.05
2022-12-14T06:52:44.388Z,49.56
2022-12-14T06:54:47.123Z,50.23
2022-12-14T06:56:49.488Z,50.15
2022-12-14T06:58:52.988Z,50.28
2022-12-14T07:00:55.079Z,50.36
2022-12-14T07:02:57.330Z,50.12
2022-12-14T07:04:59.764Z,50.33
2022-12-14T07:07:02.188Z,50.15
2022-12-14T07:09:05.879Z,50.19
2022-12-14T07:11:10.920Z,50.58
2022-12-14T07:13:13.099Z,50.85
2022-12-14T07:15:15.558Z,50.73
2022-12-14T07:17:17.566Z,50.55
2022-12-14T07:19:19.430Z,50.28
2022-12-14T07:21:22.819Z,49.60
2022-12-14T07:23:28.107Z,50.18
2022-12-14T07:25:30.539Z,50.40
2022-12-14T07:27:33.002Z,50.00
2022-12-14T07:29:35.218Z,49.95
2022-12-14T07:31:37.387Z,50.64
2022-12-14T07:33:39.839Z,50.20
2022-12-14T07:35:42.235Z,50.45
2022-12-14T07:37:49.349Z,49.83
2022-12-14T07:39:54.819Z,49.68
2022-12-14T07:41:56.835Z,50.06
2022-12-14T07:44:00.991Z,50.20
2022-12-14T07:46:05.610Z,50.16
2022-12-14T07:48:07.826Z,49.88
2022-12-14T07:50:10.731Z,49.40
2022-12-14T07:52:12.849Z,48.92
2022-12-14T07:54:14.983Z,48.41
2022-12-14T07:56:20.918Z,48.61
2022-12-14T07:58:23.030Z,48.24
2022-12-14T08:00:25.135Z,48.62
2022-12-14T08:02:27.452Z,48.43
2022-12-14T08:04:29.639Z,48.52
2022-12-14T08:06:32.174Z,48.10
2022-12-14T08:08:37.151Z,48.06
2022-12-14T08:10:40.644Z,48.11
2022-12-14T08:12:42.990Z,48.45
2022-12-14T08:14:45.168Z,47.63
2022-12-14T08:16:48.721Z,47.75
2022-12-14T08:18:53.369Z,47.53
2022-12-14T08:20:55.594Z,47.01
2022-12-14T08:22:57.797Z,47.23
2022-12-14T08:25:00.222Z,47.16
2022-12-14T08:27:02.710Z,47.93
2022-12-14T08:29:05.797Z,47.89
2022-12-14T08:31:11.537Z,48.21
2022-12-14T08:33:13.737Z,48.32
2022-12-14T08:35:15.957Z,48.09
2022-12-14T08:37:17.963Z,48.88
2022-12-14T08:39:20.225Z,48.56
2022-12-14T08:41:23.398Z,48.50
2022-12-14T08:43:28.982Z,48.68
2022-12-14T08:45:31.390Z,48.38
2022-12-14T08:47:33.529Z,48.64
2022-12-14T08:49:35.822Z,48.92
2022-12-14T08:51:38.850Z,47.84
2022-12-14T08:53:40.930Z,47.99
2022-12-14T08:55:43.663Z,47.56
2022-12-14T08:57:45.886Z,48.30
2022-12-14T09:00:03.782Z,48.05
2022-12-14T09:02:06.611Z,48.30
2022-12-14T09:04:09.042Z,48.25
2022-12-14T09:06:16.485Z,46.82
2022-12-14T09:08:18.622Z,46.41
2022-12-14T09:10:20.470Z,46.56
2022-12-14T09:12:23.486Z,46.68
2022-12-14T09:14:25.514Z,46.00
2022-12-14T09:16:27.889Z,46.57
2022-12-14T09:18:30.690Z,45.78
2022-12-14T09:20:33.544Z,47.01
2022-12-14T09:22:35.704Z,46.49
2022-12-14T09:24:38.019Z,45.80
2022-12-14T09:26:40.257Z,46.68
2022-12-14T09:28:46.186Z,46.22
2022-12-14T09:30:48.229Z,46.87
2022-12-14T09:32:50.712Z,47.17
2022-12-14T09:34:53.293Z,47.14
2022-12-14T09:36:55.425Z,47.26
2022-12-14T09:38:58.027Z,47.53
2022-12-14T09:41:07.637Z,47.65
2022-12-14T09:43:20.369Z,47.19
2022-12-14T09:45:29.094Z,46.53
2022-12-14T09:47:35.848Z,46.64
2022-12-14T09:50:06.836Z,46.51
2022-12-14T09:52:18.333Z,46.33
2022-12-14T09:54:26.457Z,47.35
2022-12-14T09:56:28.967Z,47.88
2022-12-14T09:58:33.266Z,48.22
2022-12-14T10:00:48.197Z,47.81
2022-12-14T10:03:40.626Z,47.38
2022-12-14T10:05:48.929Z,47.69
2022-12-14T10:07:59.580Z,47.87
2022-12-14T10:10:10.813Z,47.87
2022-12-14T10:12:34.614Z,48.36
2022-12-14T10:15:24.439Z,48.31
2022-12-14T10:18:01.450Z,47.76
2022-12-14T10:20:30.088Z,46.98
2022-12-14T10:22:37.930Z,47.13
2022-12-14T10:24:49.193Z,47.04
2022-12-14T10:26:53.578Z,46.30
2022-12-14T10:29:32.888Z,46.35
2022-12-14T10:31:41.139Z,46.40
2022-12-14T10:33:45.743Z,46.62
2022-12-14T10:35:55.308Z,46.92
2022-12-14T10:38:25.208Z,46.41
2022-12-14T10:40:34.242Z,46.99
2022-12-14T10:42:55.630Z,46.78
2022-12-14T10:45:39.023Z,46.20
2022-12-14T10:47:38.138Z,45.49
2022-12-14T10:49:53.420Z,46.24
2022-12-14T10:52:03.562Z,46.45
2022-12-14T10:54:23.703Z,46.01
2022-12-14T10:56:34.192Z,46.62
2022-12-14T10:58:36.274Z,46.76
2022-12-14T11:00:38.532Z,47.37
2022-12-14T11:02:44.374Z,47.76
2022-12-14T11:04:56.583Z,47.68
2022-12-14T11:07:04.832Z,48.03
2022-12-14T11:09:21.756Z,47.75
2022-12-14T11:11:26.114Z,47.82
2022-12-14T11:13:28.387Z,47.59
2022-12-14T11:15:38.015Z,47.13
2022-12-14T11:17:42.973Z,46.01
2022-12-14T11:20:02.821Z,46.34
2022-12-14T11:22:18.662Z,45.84
2022-12-14T11:24:27.404Z,46.09
2022-12-14T11:26:43.203Z,45.43
2022-12-14T11:28:56.423Z,45.69
2022-12-14T11:31:13.964Z,46.27
2022-12-14T11:33:17.952Z,46.26
2022-12-14T11:35:21.479Z,46.08
2022-12-14T11:37:27.104Z,46.63
2022-12-14T11:39:29.420Z,46.29
2022-12-14T11:41:59.151Z,46.15
2022-12-14T11:44:24.181Z,45.93
2022-12-14T11:46:47.468Z,45.79
2022-12-14T11:48:52.704Z,46.04
2022-12-14T11:51:08.941Z,45.94
2022-12-14T11:53:17.332Z,46.37
2022-12-14T11:55:27.130Z,46.38
2022-12-14T11:57:59.648Z,45.03
2022-12-14T12:00:06.060Z,44.91
2022-12-14T12:02:41.169Z,45.04
2022-12-14T12:04:56.240Z,44.78
2022-12-14T12:07:04.268Z,45.74
2022-12-14T12:09:21.888Z,45.34
2022-12-14T12:11:28.687Z,45.64
2022-12-14T12:13:42.293Z,44.57
2022-12-14T12:15:51.315Z,45.70
2022-12-14T12:17:58.178Z,45.57
2022-12-14T12:20:00.064Z,45.98
2022-12-14T12:22:04.214Z,46.11
2022-12-14T12:24:38.744Z,46.69
2022-12-14T12:27:12.442Z,46.92
2022-12-14T12:29:38.190Z,47.15
2022-12-14T12:31:57.237Z,47.50
2022-12-14T12:34:14.376Z,47.22
2022-12-14T12:36:23.939Z,47.50
2022-12-14T12:38:50.117Z,47.99
2022-12-14T12:41:16.905Z,48.12
2022-12-14T12:43:32.183Z,48.37
2022-12-14T12:45:44.626Z,48.38
2022-12-14T12:48:04.350Z,47.91
2022-12-14T12:50:30.636Z,48.24
2022-12-14T12:52:48.897Z,48.32
2022-12-14T12:55:00.513Z,47.94
2022-12-14T12:57:05.151Z,47.92
2022-12-14T12:59:07.933Z,48.07
2022-12-14T13:01:19.994Z,48.13
2022-12-14T13:03:53.501Z,48.98
2022-12-14T13:06:03.139Z,48.64
2022-12-14T13:08:13.689Z,48.82
2022-12-14T13:10:32.349Z,48.85
2022-12-14T13:12:42.209Z,48.53
2022-12-14T13:14:50.281Z,48.33
2022-12-14T13:16:54.468Z,48.28
2022-12-14T13:21:36.737Z,47.96
2022-12-14T13:23:46.330Z,47.87
2022-12-14T13:26:55.608Z,47.77
2022-12-14T13:28:57.375Z,48.21
2022-12-14T13:31:21.045Z,48.02
2022-12-14T13:33:42.166Z,47.57
2022-12-14T13:36:15.509Z,48.16
2022-12-14T13:38:42.236Z,47.62
2022-12-14T13:41:19.933Z,47.74
2022-12-14T13:43:49.778Z,47.81
2022-12-14T13:45:51.945Z,48.21
2022-12-14T13:47:57.244Z,48.35
2022-12-14T13:52:41.758Z,48.82
2022-12-14T13:54:47.726Z,48.59
2022-12-14T13:56:50.158Z,48.24
2022-12-14T13:58:52.949Z,48.62
2022-12-14T14:00:58.562Z,48.77
2022-12-14T14:03:00.710Z,48.50
2022-12-14T14:05:20.611Z,48.49
2022-12-14T14:07:25.532Z,48.75
2022-12-14T14:09:33.857Z,48.53
2022-12-14T14:11:37.537Z,48.43
2022-12-14T14:13:40.334Z,47.99
2022-12-14T14:16:26.425Z,48.07
2022-12-14T14:18:19.901Z,47.58
2022-12-14T14:20:35.256Z,46.86
2022-12-14T14:22:39.123Z,47.73
2022-12-14T14:25:02.522Z,46.74
2022-12-14T14:27:07.598Z,46.89
2022-12-14T14:29:21.432Z,46.76
2022-12-14T14:31:43.972Z,46.13
2022-12-14T14:33:49.694Z,46.15
2022-12-14T14:35:51.976Z,46.41
2022-12-14T14:37:59.405Z,46.41
2022-12-14T14:40:20.659Z,46.24
2022-12-14T14:42:29.698Z,46.77
2022-12-14T14:44:40.784Z,45.76
2022-12-14T14:46:48.612Z,46.19
2022-12-14T14:48:56.596Z,45.79
2022-12-14T14:51:05.978Z,45.90
2022-12-14T14:53:30.091Z,46.16
2022-12-14T14:58:01.225Z,46.43
2022-12-14T15:00:06.745Z,46.65
2022-12-14T15:02:41.906Z,46.34
2022-12-14T15:04:51.546Z,46.16
2022-12-14T15:07:07.691Z,45.96
2022-12-14T15:09:09.707Z,46.25
2022-12-14T15:11:17.101Z,45.78
2022-12-14T15:13:30.243Z,45.77
2022-12-14T15:15:46.059Z,45.84
2022-12-14T15:17:48.098Z,46.01
2022-12-14T15:20:03.257Z,45.52
2022-12-14T15:22:36.642Z,45.43
2022-12-14T15:24:42.452Z,46.00
2022-12-14T15:26:44.583Z,45.61
2022-12-14T15:28:49.380Z,46.02
2022-12-14T15:30:51.770Z,46.53
2022-12-14T15:32:59.286Z,46.72
2022-12-14T15:35:08.631Z,46.43
2022-12-14T15:37:37.130Z,46.20
2022-12-14T15:39:40.778Z,46.40
2022-12-14T15:41:43.180Z,46.26
2022-12-14T15:43:47.063Z,46.82
2022-12-14T15:45:55.671Z,46.87
2022-12-14T15:48:40.387Z,46.76
2022-12-14T15:50:46.665Z,47.04
2022-12-14T15:52:51.280Z,46.70
2022-12-14T15:54:53.596Z,46.47
2022-12-14T15:56:57.903Z,47.00
2022-12-14T15:59:31.751Z,46.47
2022-12-14T16:01:54.204Z,46.71
2022-12-14T16:04:07.821Z,46.81
2022-12-14T16:06:14.585Z,46.96
2022-12-14T16:08:17.827Z,47.44
2022-12-14T16:10:29.050Z,47.67
2022-12-14T16:12:44.732Z,47.57
2022-12-14T16:14:47.713Z,47.53
2022-12-14T16:16:50.945Z,47.84
2022-12-14T16:18:53.089Z,47.60
2022-12-14T16:21:00.550Z,47.84
2022-12-14T16:23:20.298Z,48.05
2022-12-14T16:25:22.391Z,48.21
2022-12-14T16:27:27.820Z,47.75
2022-12-14T16:29:32.488Z,48.29
2022-12-14T16:31:36.353Z,47.88
2022-12-14T16:33:40.993Z,48.08
2022-12-14T16:35:44.768Z,48.52
2022-12-14T16:37:51.385Z,48.27
2022-12-14T16:39:53.727Z,48.37
2022-12-14T16:42:00.832Z,48.67
2022-12-14T16:44:07.722Z,48.79
2022-12-14T16:46:15.493Z,48.70
2022-12-14T16:48:21.313Z,48.71
2022-12-14T16:50:56.632Z,49.19
2022-12-14T16:52:47.313Z,49.65
2022-12-14T16:55:14.418Z,49.78
2022-12-14T16:57:24.470Z,49.71
2022-12-14T16:59:38.302Z,50.16
2022-12-14T17:01:45.125Z,50.07
2022-12-14T17:04:00.138Z,50.57
2022-12-14T17:06:07.567Z,50.60
2022-12-14T17:08:11.747Z,50.50
2022-12-14T17:10:32.839Z,50.49
2022-12-14T17:12:35.035Z,50.24
2022-12-14T17:14:37.149Z,50.64
2022-12-14T17:16:39.790Z,51.11
2022-12-14T17:18:45.297Z,51.91
2022-12-14T17:20:47.538Z,52.29
2022-12-14T17:22:50.197Z,51.66
2022-12-14T17:24:52.536Z,51.57
2022-12-14T17:26:54.589Z,50.97
2022-12-14T17:28:57.582Z,50.34
2022-12-14T17:31:01.969Z,50.49
2022-12-14T17:33:04.194Z,50.60
2022-12-14T17:35:10.815Z,50.58
2022-12-14T17:37:24.609Z,51.51
2022-12-14T17:39:28.846Z,51.56
2022-12-14T17:41:31.206Z,51.51
2022-12-14T17:43:33.698Z,51.29
2022-12-14T17:45:36.091Z,51.79
2022-12-14T17:47:38.225Z,52.38
2022-12-14T17:49:42.439Z,53.11
2022-12-14T17:51:46.689Z,53.32
2022-12-14T17:53:49.371Z,52.95
2022-12-14T17:55:51.468Z,53.07
2022-12-14T17:57:54.616Z,52.93
2022-12-14T18:00:15.534Z,52.62
2022-12-14T18:02:26.646Z,53.37
2022-12-14T18:04:28.942Z,52.61
2022-12-14T18:06:33.926Z,52.65
2022-12-14T18:08:35.988Z,52.53
2022-12-14T18:10:39.093Z,53.46
2022-12-14T18:12:44.633Z,52.74
2022-12-14T18:14:47.133Z,52.76
2022-12-14T18:16:49.943Z,52.75
2022-12-14T18:18:54.321Z,52.36
2022-12-14T18:21:02.365Z,52.64
2022-12-14T18:23:04.442Z,51.94
2022-12-14T18:25:32.661Z,51.94
2022-12-14T18:27:34.645Z,51.88
2022-12-14T18:29:39.081Z,51.63
2022-12-14T18:31:41.326Z,52.03
2022-12-14T18:33:47.519Z,51.67
2022-12-14T18:35:50.784Z,52.25
2022-12-14T18:37:53.588Z,51.81
2022-12-14T18:39:55.682Z,51.84
2022-12-14T18:42:00.617Z,51.62
2022-12-14T18:44:02.891Z,51.93
2022-12-14T18:46:05.389Z,51.90
2022-12-14T18:48:07.770Z,52.03
2022-12-14T18:50:10.271Z,51.93
2022-12-14T18:52:13.122Z,51.79
2022-12-14T18:54:17.575Z,51.68
2022-12-14T18:56:22.191Z,51.67
2022-12-14T18:58:29.345Z,51.58
2022-12-14T19:00:36.491Z,51.85
2022-12-14T19:02:39.803Z,51.79
2022-12-14T19:04:42.298Z,52.17
2022-12-14T19:06:46.132Z,52.15
2022-12-14T19:08:49.521Z,52.12
2022-12-14T19:10:51.762Z,51.92
2022-12-14T19:12:54.299Z,51.84
2022-12-14T19:14:56.341Z,52.29
2022-12-14T19:16:58.820Z,52.80
2022-12-14T19:19:00.991Z,52.31
2022-12-14T19:21:04.026Z,52.30
2022-12-14T19:23:16.399Z,51.98
2022-12-14T19:25:19.832Z,51.95
2022-12-14T19:27:42.531Z,52.01
2022-12-14T19:29:44.290Z,51.55
2022-12-14T19:31:47.794Z,51.61
2022-12-14T19:33:54.337Z,51.63
2022-12-14T19:35:56.666Z,51.36
2022-12-14T19:37:58.792Z,51.35
2022-12-14T19:40:02.803Z,51.52
2022-12-14T19:42:04.992Z,51.58
2022-12-14T19:44:07.448Z,51.31
2022-12-14T19:46:11.504Z,51.48
2022-12-14T19:48:13.806Z,51.51
2022-12-14T19:50:16.550Z,51.85
2022-12-14T19:52:18.656Z,51.65
2022-12-14T19:54:20.787Z,51.64
2022-12-14T19:56:23.516Z,51.88
2022-12-14T19:58:25.609Z,52.23
2022-12-14T20:00:28.031Z,52.09
2022-12-14T20:02:30.261Z,51.68
2022-12-14T20:04:35.436Z,51.63
2022-12-14T20:06:37.827Z,51.81
2022-12-14T20:08:39.966Z,51.62
2022-12-14T20:10:42.277Z,51.66
2022-12-14T20:12:44.352Z,51.62
2022-12-14T20:14:49.360Z,51.74
2022-12-14T20:16:52.627Z,51.72
2022-12-14T20:18:54.781Z,51.71
2022-12-14T20:21:16.034Z,52.10
2022-12-14T20:23:22.406Z,52.16
2022-12-14T20:25:25.081Z,52.46
2022-12-14T20:27:27.283Z,51.77
2022-12-14T20:29:29.461Z,51.69
2022-12-14T20:31:34.963Z,51.93
2022-12-14T20:33:38.835Z,51.60
2022-12-14T20:35:43.548Z,51.97
2022-12-14T20:37:46.372Z,52.10
2022-12-14T20:39:48.873Z,51.94
2022-12-14T20:41:54.096Z,52.02
2022-12-14T20:43:56.307Z,52.12
2022-12-14T20:45:58.751Z,51.99
2022-12-14T20:48:00.902Z,51.96
2022-12-14T20:50:06.940Z,52.17
2022-12-14T20:52:09.266Z,52.40
2022-12-14T20:54:17.794Z,52.39
2022-12-14T20:56:19.789Z,52.28
2022-12-14T20:58:22.320Z,52.23
2022-12-14T21:00:24.698Z,52.64
2022-12-14T21:02:26.858Z,53.26
2022-12-14T21:04:29.092Z,53.36
2022-12-14T21:06:33.150Z,53.17
2022-12-14T21:08:54.208Z,53.22
2022-12-14T21:11:23.762Z,53.66
2022-12-14T21:13:25.768Z,53.31
2022-12-14T21:15:28.424Z,53.24
2022-12-14T21:17:31.381Z,53.72
2022-12-14T21:19:33.614Z,53.61
2022-12-14T21:21:35.447Z,53.58
2022-12-14T21:23:41.237Z,53.68
2022-12-14T21:25:44.198Z,53.35
2022-12-14T21:27:46.540Z,53.32
2022-12-14T21:29:49.472Z,52.92
2022-12-14T21:31:51.554Z,53.40
2022-12-14T21:33:58.537Z,53.27
2022-12-14T21:36:00.785Z,53.30
2022-12-14T21:38:03.137Z,53.70
2022-12-14T21:40:05.815Z,53.41
2022-12-14T21:42:10.577Z,53.84
2022-12-14T21:44:12.697Z,54.29
2022-12-14T21:46:18.771Z,54.23
2022-12-14T21:48:21.059Z,54.25
2022-12-14T21:50:23.208Z,54.51
2022-12-14T21:52:26.707Z,54.56
2022-12-14T21:54:29.029Z,54.65
2022-12-14T21:56:49.541Z,54.34
2022-12-14T21:58:53.125Z,54.36
2022-12-14T22:00:56.403Z,54.78
2022-12-14T22:02:58.972Z,54.72
2022-12-14T22:05:01.074Z,54.52
2022-12-14T22:07:03.339Z,54.99
2022-12-14T22:09:05.978Z,55.27
2022-12-14T22:11:08.418Z,55.41
2022-12-14T22:13:10.554Z,54.96
2022-12-14T22:15:12.817Z,55.80
2022-12-14T22:17:14.973Z,54.95
2022-12-14T22:19:22.372Z,55.32
2022-12-14T22:21:24.457Z,55.93
2022-12-14T22:23:26.712Z,55.90
2022-12-14T22:25:29.216Z,56.34
2022-12-14T22:27:31.650Z,56.13
2022-12-14T22:29:33.882Z,55.68
2022-12-14T22:31:37.429Z,55.22
2022-12-14T22:33:39.673Z,55.62
2022-12-14T22:35:41.734Z,55.35
2022-12-14T22:37:43.821Z,55.40
2022-12-14T22:39:48.780Z,55.35
2022-12-14T22:41:51.142Z,55.49
2022-12-14T22:43:57.877Z,55.52
2022-12-14T22:46:04.036Z,55.58
2022-12-14T22:48:06.314Z,56.01
2022-12-14T22:50:09.117Z,56.17
2022-12-14T22:52:11.398Z,56.20
2022-12-14T22:54:21.207Z,56.81
2022-12-14T22:56:34.727Z,56.84
2022-12-14T22:58:39.651Z,56.47
2022-12-14T23:00:41.956Z,56.93
2022-12-14T23:02:48.196Z,57.09
2022-12-14T23:04:51.204Z,57.40
2022-12-14T23:06:54.333Z,57.60
2022-12-14T23:09:15.204Z,57.30
2022-12-14T23:11:36.013Z,57.95
2022-12-14T23:13:56.803Z,58.02
2022-12-14T23:16:17.799Z,58.01
2022-12-14T23:18:39.039Z,58.16
2022-12-14T23:20:59.526Z,58.22
2022-12-14T23:23:24.381Z,58.56
2022-12-14T23:25:45.434Z,59.87
2022-12-14T23:28:05.967Z,59.49
2022-12-14T23:30:27.606Z,60.32
2022-12-14T23:32:48.276Z,61.21
2022-12-14T23:35:09.423Z,60.23
2022-12-14T23:37:30.108Z,59.80
2022-12-14T23:39:51.347Z,60.44
2022-12-14T23:42:12.596Z,59.57
2022-12-14T23:44:33.102Z,60.16
2022-12-14T23:46:53.809Z,60.07
2022-12-14T23:49:16.232Z,59.74
2022-12-14T23:51:37.054Z,60.54
2022-12-14T23:53:57.921Z,60.58
2022-12-14T23:56:19.318Z,60.82
2022-12-14T23:58:40.108Z,60.87
